Time;durP1;ratioP1;P1;durP2;ratioP2;P2;SDS_P1;SDS_P2;PMS_P1;PMS_P2;Temp;Humidity;BMP_temperature;BMP_pressure;BME280_temperature;BME280_humidity;BME280_pressure;Samples;Min_cycle;Max_cycle;Signal;HPM_P1;HPM_P2
2021/12/14 00:02:18;;;;;;;65.97;38.30;;;;;;;;;;6189219;23;20009;-90
2021/12/14 00:08:27;;;;;;;65.97;39.08;;;;;;;;;;6190705;23;20009;-91
2021/12/14 00:15:59;;;;;;;68.55;37.95;;;;;;;;;;6201156;23;20009;-93
2021/12/14 00:18:26;;;;;;;63.40;35.67;;;;;;;;;;6191162;23;20012;-92
2021/12/14 00:24:06;;;;;;;58.85;35.97;;;;;;;;;;6190877;23;20327;-90
2021/12/14 00:26:33;;;;;;;64.57;37.67;;;;;;;;;;6191418;23;19997;-91
2021/12/14 00:28:59;;;;;;;61.70;38.25;;;;;;;;;;6189846;23;20005;-91
2021/12/14 00:31:26;;;;;;;61.80;37.08;;;;;;;;;;6190676;23;20023;-89
2021/12/14 00:33:53;;;;;;;63.35;37.75;;;;;;;;;;6191159;23;20005;-90
2021/12/14 00:36:21;;;;;;;57.00;36.25;;;;;;;;;;6191008;23;20001;-91
2021/12/14 00:38:49;;;;;;;56.90;36.83;;;;;;;;;;6190339;23;20368;-90
2021/12/14 00:41:20;;;;;;;55.58;35.60;;;;;;;;;;6190842;23;20012;-91
2021/12/14 00:43:46;;;;;;;60.03;36.65;;;;;;;;;;6189212;23;20001;-90
2021/12/14 00:46:13;;;;;;;59.35;35.28;;;;;;;;;;6192694;23;20260;-90
2021/12/14 00:48:40;;;;;;;61.58;35.58;;;;;;;;;;6192866;23;20005;-90
2021/12/14 00:51:06;;;;;;;57.65;35.53;;;;;;;;;;6192259;23;20021;-90
2021/12/14 00:53:33;;;;;;;55.10;33.83;;;;;;;;;;6192542;23;20085;-90
2021/12/14 00:56:01;;;;;;;54.15;33.40;;;;;;;;;;6193021;23;20005;-90
2021/12/14 00:58:27;;;;;;;53.13;32.28;;;;;;;;;;6191378;23;20009;-90
2021/12/14 01:01:01;;;;;;;54.65;33.50;;;;;;;;;;6191479;23;20040;-89
2021/12/14 01:03:29;;;;;;;56.47;34.33;;;;;;;;;;6192622;23;20076;-89
2021/12/14 01:05:56;;;;;;;55.53;32.22;;;;;;;;;;6192501;23;20008;-90
2021/12/14 01:08:25;;;;;;;59.47;33.30;;;;;;;;;;6192025;23;20025;-90
2021/12/14 01:10:59;;;;;;;54.05;31.45;;;;;;;;;;6191356;23;20088;-90
2021/12/14 01:13:27;;;;;;;55.85;32.55;;;;;;;;;;6192400;23;20005;-90
2021/12/14 01:18:46;;;;;;;54.97;31.40;;;;;;;;;;6202330;23;20013;-90
2021/12/14 01:24:35;;;;;;;51.58;30.83;;;;;;;;;;6192395;23;20386;-89
2021/12/14 01:27:02;;;;;;;52.17;29.92;;;;;;;;;;6192381;23;20024;-90
2021/12/14 01:29:29;;;;;;;50.53;30.25;;;;;;;;;;6192207;23;20012;-90
2021/12/14 01:32:00;;;;;;;55.47;31.08;;;;;;;;;;6192472;23;19997;-90
2021/12/14 01:34:26;;;;;;;55.45;29.95;;;;;;;;;;6192295;23;20005;-90
2021/12/14 01:36:57;;;;;;;48.50;30.23;;;;;;;;;;6192550;23;20010;-91
2021/12/14 01:41:56;;;;;;;46.22;27.60;;;;;;;;;;6202009;23;20063;-91
2021/12/14 01:44:23;;;;;;;45.80;28.30;;;;;;;;;;6190835;23;20356;-92
2021/12/14 01:46:55;;;;;;;50.10;28.77;;;;;;;;;;6192494;23;20001;-91
2021/12/14 01:49:23;;;;;;;47.75;29.80;;;;;;;;;;6190044;23;20008;-91
2021/12/14 01:51:50;;;;;;;49.25;30.20;;;;;;;;;;6191937;23;20020;-91
2021/12/14 01:54:18;;;;;;;49.85;29.67;;;;;;;;;;6192363;23;20071;-91
2021/12/14 01:56:45;;;;;;;51.75;30.05;;;;;;;;;;6191693;23;20089;-90
2021/12/14 01:59:17;;;;;;;52.58;29.45;;;;;;;;;;6192104;23;20012;-91
2021/12/14 02:01:54;;;;;;;53.95;28.52;;;;;;;;;;6190183;23;20024;-90
2021/12/14 02:07:42;;;;;;;48.58;29.25;;;;;;;;;;6192088;23;20004;-90
2021/12/14 02:10:11;;;;;;;47.20;29.90;;;;;;;;;;6190786;23;20005;-92
2021/12/14 02:12:40;;;;;;;46.53;30.23;;;;;;;;;;6191941;23;20013;-92
2021/12/14 02:15:12;;;;;;;49.15;30.60;;;;;;;;;;6190658;23;20352;-93
2021/12/14 02:17:39;;;;;;;51.00;32.28;;;;;;;;;;6190678;23;20005;-91
2021/12/14 02:20:06;;;;;;;46.58;28.80;;;;;;;;;;6189945;23;20040;-91
2021/12/14 02:22:32;;;;;;;48.90;29.33;;;;;;;;;;6192161;23;20001;-91
2021/12/14 02:24:58;;;;;;;48.33;29.67;;;;;;;;;;6190370;23;20356;-92
2021/12/14 02:27:25;;;;;;;54.53;30.30;;;;;;;;;;6191985;23;20264;-91
2021/12/14 02:29:51;;;;;;;53.20;29.42;;;;;;;;;;6190752;23;20047;-92
2021/12/14 02:32:17;;;;;;;51.03;29.65;;;;;;;;;;6190014;23;20001;-93
2021/12/14 02:34:46;;;;;;;51.85;29.77;;;;;;;;;;6192161;23;20291;-93
2021/12/14 02:37:15;;;;;;;52.78;30.42;;;;;;;;;;6191639;23;20021;-92
2021/12/14 02:42:21;;;;;;;58.17;30.85;;;;;;;;;;6201859;23;20009;-92
2021/12/14 02:44:49;;;;;;;57.50;33.17;;;;;;;;;;6192227;23;20256;-93
2021/12/14 02:47:16;;;;;;;53.95;29.83;;;;;;;;;;6190476;23;20005;-93
2021/12/14 02:49:43;;;;;;;53.10;31.83;;;;;;;;;;6192061;23;20080;-94
2021/12/14 02:52:10;;;;;;;57.40;33.47;;;;;;;;;;6191601;23;20372;-92
2021/12/14 02:54:39;;;;;;;55.78;32.35;;;;;;;;;;6191046;23;20001;-91
2021/12/14 02:57:25;;;;;;;58.17;32.47;;;;;;;;;;6191994;23;19993;-91
2021/12/14 02:59:52;;;;;;;63.80;32.55;;;;;;;;;;6191824;23;20017;-90
2021/12/14 03:02:23;;;;;;;65.72;37.30;;;;;;;;;;6189714;23;20001;-91
2021/12/14 03:07:55;;;;;;;58.78;31.70;;;;;;;;;;6191099;23;20004;-93
2021/12/14 03:10:38;;;;;;;53.90;30.92;;;;;;;;;;6190342;23;20012;-90
2021/12/14 03:13:09;;;;;;;51.47;27.75;;;;;;;;;;6189540;23;20047;-90
2021/12/14 03:15:45;;;;;;;49.70;26.33;;;;;;;;;;6191674;23;20004;-91
2021/12/14 03:18:14;;;;;;;45.75;25.15;;;;;;;;;;6191631;23;20012;-91
2021/12/14 03:20:52;;;;;;;52.75;24.50;;;;;;;;;;6190961;23;20012;-91
2021/12/14 03:23:22;;;;;;;47.40;24.58;;;;;;;;;;6189812;23;20376;-93
2021/12/14 03:25:49;;;;;;;58.22;24.15;;;;;;;;;;6191406;23;19997;-89
2021/12/14 03:28:17;;;;;;;35.60;22.50;;;;;;;;;;6189986;23;20001;-92
2021/12/14 03:30:49;;;;;;;35.72;21.65;;;;;;;;;;6191348;23;20299;-91
2021/12/14 03:33:19;;;;;;;46.15;22.23;;;;;;;;;;6191468;23;20016;-91
2021/12/14 03:35:50;;;;;;;40.75;22.48;;;;;;;;;;6189991;23;20200;-91
2021/12/14 03:38:21;;;;;;;48.97;21.30;;;;;;;;;;6191124;23;19997;-89
2021/12/14 03:41:10;;;;;;;37.45;20.80;;;;;;;;;;6191530;23;20001;-90
2021/12/14 03:43:37;;;;;;;46.58;28.52;;;;;;;;;;6130037;23;20010;-90
2021/12/14 03:46:04;;;;;;;35.92;22.92;;;;;;;;;;6130034;23;20008;-91
2021/12/14 03:48:31;;;;;;;43.05;24.55;;;;;;;;;;6129348;23;20002;-90
2021/12/14 03:50:57;;;;;;;34.95;23.67;;;;;;;;;;6129488;23;20014;-91
2021/12/14 03:53:24;;;;;;;49.20;29.55;;;;;;;;;;6129777;23;20029;-90
2021/12/14 03:55:56;;;;;;;42.33;25.30;;;;;;;;;;6129562;23;20002;-90
2021/12/14 03:58:25;;;;;;;48.10;23.50;;;;;;;;;;6129247;23;20010;-90
2021/12/14 04:00:54;;;;;;;38.00;22.15;;;;;;;;;;6129678;23;20006;-90
2021/12/14 04:03:21;;;;;;;36.55;23.13;;;;;;;;;;6129776;23;20013;-91
2021/12/14 04:05:47;;;;;;;39.60;24.70;;;;;;;;;;6129929;23;20261;-90
2021/12/14 04:08:14;;;;;;;42.63;24.77;;;;;;;;;;6129841;23;20002;-89
2021/12/14 04:10:41;;;;;;;41.20;25.58;;;;;;;;;;6129231;23;20001;-89
2021/12/14 04:13:08;;;;;;;51.42;27.98;;;;;;;;;;6129597;23;20053;-89
2021/12/14 04:15:34;;;;;;;47.58;26.42;;;;;;;;;;6129433;23;20010;-91
2021/12/14 04:18:01;;;;;;;42.25;27.52;;;;;;;;;;6129494;23;20013;-89
2021/12/14 04:20:30;;;;;;;37.60;25.63;;;;;;;;;;6159050;23;20054;-92
2021/12/14 04:22:56;;;;;;;32.70;22.58;;;;;;;;;;6192679;23;20364;-91
2021/12/14 04:25:25;;;;;;;36.55;24.42;;;;;;;;;;6191733;23;20032;-90
2021/12/14 04:27:53;;;;;;;36.30;24.77;;;;;;;;;;6191829;23;20004;-91
2021/12/14 04:30:20;;;;;;;36.65;24.63;;;;;;;;;;6192884;23;20020;-92
2021/12/14 04:32:47;;;;;;;31.95;22.30;;;;;;;;;;6193076;23;20016;-90
2021/12/14 04:35:14;;;;;;;31.15;19.85;;;;;;;;;;6192705;23;20037;-89
2021/12/14 04:37:42;;;;;;;30.05;20.08;;;;;;;;;;6193052;23;20005;-89
2021/12/14 05:20:22;;;;;;;41.13;23.10;;;;;;;;;;6219347;22;20032;-90
2021/12/14 05:25:38;;;;;;;47.83;24.50;;;;;;;;;;6221553;22;20023;-89
2021/12/14 05:28:04;;;;;;;44.17;24.50;;;;;;;;;;6222618;23;20008;-89
2021/12/14 05:30:49;;;;;;;38.28;23.75;;;;;;;;;;6220582;23;20031;-89
2021/12/14 05:36:16;;;;;;;46.20;23.40;;;;;;;;;;6222252;23;20024;-90
2021/12/14 05:47:18;;;;;;;45.60;23.42;;;;;;;;;;6221551;22;20025;-91
2021/12/14 06:01:23;;;;;;;57.58;35.03;;;;;;;;;;6222348;23;20421;-90
2021/12/14 06:21:32;;;;;;;51.97;31.63;;;;;;;;;;6250733;22;20319;-92
2021/12/14 06:32:39;;;;;;;86.15;40.00;;;;;;;;;;6252410;23;20015;-91
2021/12/14 06:35:21;;;;;;;89.75;39.05;;;;;;;;;;6252391;23;20000;-90
2021/12/14 06:38:27;;;;;;;78.07;37.17;;;;;;;;;;6252419;23;20004;-91
2021/12/14 06:40:56;;;;;;;84.15;40.78;;;;;;;;;;6225546;23;20386;-90
2021/12/14 06:43:25;;;;;;;87.63;43.97;;;;;;;;;;6251186;23;20042;-90
2021/12/14 06:45:55;;;;;;;84.25;47.08;;;;;;;;;;6252328;23;20535;-90
2021/12/14 06:48:24;;;;;;;113.43;59.28;;;;;;;;;;6252212;23;19996;-89
2021/12/14 06:50:59;;;;;;;89.32;49.30;;;;;;;;;;6252503;23;20107;-89
2021/12/14 06:53:26;;;;;;;117.28;62.88;;;;;;;;;;6252306;23;20001;-88
2021/12/14 06:55:53;;;;;;;133.77;58.30;;;;;;;;;;6252218;22;20263;-88
2021/12/14 06:58:19;;;;;;;186.13;68.68;;;;;;;;;;6252142;23;20012;-88
2021/12/14 07:00:48;;;;;;;158.93;62.65;;;;;;;;;;6252109;23;20002;-90
2021/12/14 07:03:14;;;;;;;129.70;60.08;;;;;;;;;;6251654;23;20000;-91
2021/12/14 07:05:43;;;;;;;112.80;59.65;;;;;;;;;;6251694;23;20000;-92
2021/12/14 07:08:11;;;;;;;87.03;46.72;;;;;;;;;;6251853;23;20401;-85
2021/12/14 07:10:39;;;;;;;67.63;39.03;;;;;;;;;;6251639;23;20000;-94
2021/12/14 07:13:21;;;;;;;69.70;39.63;;;;;;;;;;6225502;23;20000;-90
2021/12/14 07:15:47;;;;;;;74.88;40.25;;;;;;;;;;6221914;23;20005;-89
2021/12/14 07:18:14;;;;;;;77.65;40.30;;;;;;;;;;6221127;23;20001;-91
2021/12/14 07:20:40;;;;;;;75.95;41.05;;;;;;;;;;6221246;23;20004;-88
2021/12/14 07:23:28;;;;;;;92.00;44.88;;;;;;;;;;6221424;23;20263;-90
2021/12/14 07:26:00;;;;;;;90.68;45.92;;;;;;;;;;6221350;23;20009;-89
2021/12/14 07:28:29;;;;;;;75.38;39.65;;;;;;;;;;6221182;23;20005;-88
2021/12/14 07:30:57;;;;;;;76.30;41.25;;;;;;;;;;6194990;23;19997;-89
2021/12/14 07:33:25;;;;;;;86.60;47.05;;;;;;;;;;6221532;23;20084;-89
2021/12/14 07:35:54;;;;;;;100.35;54.22;;;;;;;;;;6221573;23;20287;-90
2021/12/14 07:38:23;;;;;;;92.05;54.70;;;;;;;;;;6221655;23;20004;-90
2021/12/14 07:40:58;;;;;;;88.00;55.08;;;;;;;;;;6194562;23;20364;-90
2021/12/14 07:43:51;;;;;;;99.85;56.03;;;;;;;;;;6194869;23;20380;-89
2021/12/14 07:46:20;;;;;;;93.22;47.33;;;;;;;;;;6214573;23;20291;-90
2021/12/14 07:48:48;;;;;;;83.68;43.13;;;;;;;;;;6221366;23;20007;-89
2021/12/14 07:51:15;;;;;;;157.95;71.18;;;;;;;;;;6220997;23;20255;-90
2021/12/14 07:53:43;;;;;;;154.63;62.38;;;;;;;;;;6221045;23;20367;-86
2021/12/14 07:56:20;;;;;;;294.88;99.57;;;;;;;;;;6221637;23;20009;-89
2021/12/14 07:58:48;;;;;;;155.05;65.78;;;;;;;;;;6194395;23;20240;-91
2021/12/14 08:01:15;;;;;;;182.35;67.90;;;;;;;;;;6221533;23;20371;-91
2021/12/14 08:03:41;;;;;;;187.38;68.78;;;;;;;;;;6221104;23;20054;-90
2021/12/14 08:06:10;;;;;;;111.00;55.42;;;;;;;;;;6194830;23;20005;-91
2021/12/14 08:08:45;;;;;;;102.95;52.17;;;;;;;;;;6221202;23;20005;-91
2021/12/14 08:14:33;;;;;;;94.13;51.13;;;;;;;;;;6220692;23;20027;-91
2021/12/14 08:16:59;;;;;;;97.45;50.92;;;;;;;;;;6071521;23;20089;-91
2021/12/14 08:19:43;;;;;;;100.43;53.70;;;;;;;;;;5074942;27;20433;-91
2021/12/14 08:22:15;;;;;;;150.73;71.57;;;;;;;;;;5074829;28;20029;-92
2021/12/14 08:24:48;;;;;;;125.72;62.67;;;;;;;;;;5074110;28;20116;-93
2021/12/14 08:27:18;;;;;;;122.40;58.25;;;;;;;;;;5074701;28;20040;-93
2021/12/14 08:29:48;;;;;;;117.95;59.55;;;;;;;;;;5075306;28;20024;-91
2021/12/14 08:32:17;;;;;;;91.53;50.42;;;;;;;;;;5074881;28;20021;-92
2021/12/14 08:34:45;;;;;;;82.85;48.05;;;;;;;;;;5074887;28;20067;-94
2021/12/14 08:37:16;;;;;;;85.35;46.90;;;;;;;;;;5074866;28;20028;-91
2021/12/14 08:39:48;;;;;;;83.50;47.97;;;;;;;;;;5073808;28;20025;-91
2021/12/14 08:42:18;;;;;;;81.55;46.13;;;;;;;;;;5074668;28;20060;-92
2021/12/14 08:44:52;;;;;;;72.35;42.00;;;;;;;;;;5071442;28;20025;-94
2021/12/14 08:47:44;;;;;;;108.80;58.67;;;;;;;;;;5074338;28;20032;-95
2021/12/14 08:50:12;;;;;;;93.50;52.60;;;;;;;;;;5073175;28;20060;-94
2021/12/14 08:52:40;;;;;;;91.15;51.60;;;;;;;;;;5074561;28;20250;-95
2021/12/14 08:55:07;;;;;;;137.98;70.47;;;;;;;;;;5075251;28;20046;-93
2021/12/14 08:57:34;;;;;;;212.88;62.60;;;;;;;;;;5075081;28;20025;-94
2021/12/14 09:00:10;;;;;;;81.60;44.42;;;;;;;;;;5074406;28;20032;-93
2021/12/14 09:02:37;;;;;;;74.45;42.95;;;;;;;;;;5074100;28;20101;-95
2021/12/14 09:05:07;;;;;;;66.15;39.63;;;;;;;;;;5073742;28;20032;-94
2021/12/14 09:07:33;;;;;;;64.10;37.25;;;;;;;;;;5073007;28;20025;-93
2021/12/14 09:10:00;;;;;;;66.22;38.20;;;;;;;;;;5073266;28;20021;-94
2021/12/14 09:12:29;;;;;;;67.43;37.85;;;;;;;;;;5074284;28;20021;-94
2021/12/14 09:14:58;;;;;;;72.20;41.10;;;;;;;;;;5073294;28;20023;-94
2021/12/14 09:17:24;;;;;;;70.30;40.13;;;;;;;;;;5072661;28;20025;-95
2021/12/14 09:19:56;;;;;;;79.15;43.72;;;;;;;;;;5072836;28;20307;-94
2021/12/14 09:22:25;;;;;;;93.75;51.67;;;;;;;;;;5074334;28;20029;-94
2021/12/14 09:24:53;;;;;;;81.57;46.45;;;;;;;;;;5073825;28;20029;-95
2021/12/14 09:27:21;;;;;;;82.82;45.10;;;;;;;;;;5073820;28;20088;-95
2021/12/14 09:29:48;;;;;;;78.93;47.17;;;;;;;;;;5066302;28;20013;-95
2021/12/14 09:32:18;;;;;;;81.10;47.28;;;;;;;;;;5060475;28;20395;-94
2021/12/14 09:34:45;;;;;;;91.15;50.70;;;;;;;;;;5060455;28;20021;-94
2021/12/14 09:37:12;;;;;;;86.38;46.97;;;;;;;;;;5059456;28;20447;-94
2021/12/14 09:39:41;;;;;;;88.90;48.22;;;;;;;;;;5060375;28;20025;-94
2021/12/14 09:42:10;;;;;;;98.75;53.55;;;;;;;;;;5060135;28;20052;-96
2021/12/14 09:44:36;;;;;;;92.85;51.08;;;;;;;;;;5059390;28;20021;-96
2021/12/14 09:47:14;;;;;;;91.35;50.38;;;;;;;;;;5059519;28;20064;-96
2021/12/14 09:49:41;;;;;;;73.07;41.17;;;;;;;;;;5060056;28;20124;-96
2021/12/14 09:52:27;;;;;;;79.70;43.72;;;;;;;;;;5058867;28;20067;-95
2021/12/14 09:54:54;;;;;;;73.50;42.63;;;;;;;;;;5059645;28;20314;-95
2021/12/14 09:57:26;;;;;;;68.10;39.38;;;;;;;;;;5059864;28;20055;-95
2021/12/14 09:59:53;;;;;;;73.63;42.75;;;;;;;;;;5060524;28;20383;-95
2021/12/14 10:02:22;;;;;;;81.22;46.97;;;;;;;;;;5059873;28;20044;-96
2021/12/14 10:04:51;;;;;;;96.72;51.58;;;;;;;;;;5061153;28;20024;-95
2021/12/14 10:07:18;;;;;;;137.15;66.07;;;;;;;;;;5062138;28;20025;-96
2021/12/14 10:09:47;;;;;;;247.18;106.75;;;;;;;;;;5061932;28;20025;-96
2021/12/14 10:14:50;;;;;;;171.35;74.88;;;;;;;;;;5062422;28;20025;-95
2021/12/14 10:17:18;;;;;;;456.02;170.65;;;;;;;;;;5060467;28;20025;-96
2021/12/14 10:19:45;;;;;;;476.05;189.25;;;;;;;;;;5062799;28;20060;-96
2021/12/14 10:22:23;;;;;;;262.50;113.05;;;;;;;;;;5065425;28;20044;-96
2021/12/14 10:24:51;;;;;;;196.48;90.80;;;;;;;;;;5065819;28;20029;-94
2021/12/14 10:27:24;;;;;;;140.60;77.15;;;;;;;;;;5066013;28;20025;-96
2021/12/14 10:29:51;;;;;;;102.47;55.63;;;;;;;;;;5065441;28;20017;-96
2021/12/14 10:32:24;;;;;;;95.68;51.75;;;;;;;;;;5067106;28;20091;-95
2021/12/14 10:34:56;;;;;;;87.10;48.28;;;;;;;;;;5065382;28;20043;-95
2021/12/14 10:37:27;;;;;;;81.25;44.33;;;;;;;;;;5062689;28;20025;-95
2021/12/14 10:47:52;;;;;;;103.85;56.33;;;;;;;;;;5434943;22;20065;-94
2021/12/14 10:50:40;;;;;;;94.80;51.13;;;;;;;;;;5001530;28;20032;-90
2021/12/14 10:53:12;;;;;;;90.43;48.90;;;;;;;;;;5050898;22;20056;-95
2021/12/14 10:56:03;;;;;;;98.45;52.47;;;;;;;;;;5050259;28;20041;-95
2021/12/14 10:58:34;;;;;;;96.63;51.77;;;;;;;;;;5049560;28;20029;-95
2021/12/14 11:01:05;;;;;;;104.78;54.80;;;;;;;;;;5043673;28;20018;-94
2021/12/14 12:47:24;;;;;;;133.90;75.45;;;;;;;;;;6046809;23;19916;-95
2021/12/14 14:29:33;;;;;;;;;;;;;;;;;;5730782;23;20073;-92
2021/12/14 14:35:15;;;;;;;293.75;148.43;;;;;;;;;;5443137;23;20054;-96
2021/12/14 14:40:48;;;;;;;386.55;182.57;;;;;;;;;;5006085;28;20459;-96
2021/12/14 14:46:33;;;;;;;341.48;173.18;;;;;;;;;;4949997;29;20046;-95
2021/12/14 14:52:16;;;;;;;271.08;141.27;;;;;;;;;;4939510;29;20054;-94
2021/12/14 14:57:43;;;;;;;237.43;138.13;;;;;;;;;;5081170;23;20456;-96
2021/12/14 15:00:12;;;;;;;256.88;132.48;;;;;;;;;;5000194;28;20320;-96
2021/12/14 15:02:41;;;;;;;228.45;115.05;;;;;;;;;;4983745;28;20443;-95
2021/12/14 15:05:08;;;;;;;244.77;126.22;;;;;;;;;;4982347;28;20038;-95
2021/12/14 15:07:46;;;;;;;278.88;131.00;;;;;;;;;;4999227;28;20022;-95
2021/12/14 15:10:17;;;;;;;295.20;132.27;;;;;;;;;;4999702;28;20029;-95
2021/12/14 15:13:03;;;;;;;403.33;158.55;;;;;;;;;;4982509;28;20031;-95
2021/12/14 15:15:31;;;;;;;459.13;178.27;;;;;;;;;;4999942;28;20052;-96
2021/12/14 15:18:03;;;;;;;582.15;244.32;;;;;;;;;;4999149;28;20030;-95
2021/12/14 15:20:31;;;;;;;577.58;243.88;;;;;;;;;;4998096;23;20045;-90
2021/12/14 15:56:54;;;;;;;119.93;59.38;;;;;;;;;;5550906;23;20060;-95
2021/12/14 15:59:23;;;;;;;156.85;71.97;;;;;;;;;;4984989;28;20025;-96
2021/12/14 16:02:12;;;;;;;199.50;80.68;;;;;;;;;;4999444;28;20110;-96
2021/12/14 16:04:41;;;;;;;171.45;75.35;;;;;;;;;;4984429;28;20022;-96
2021/12/14 16:07:10;;;;;;;165.65;73.18;;;;;;;;;;4982472;28;20034;-96
2021/12/14 16:09:36;;;;;;;189.38;81.25;;;;;;;;;;5000950;28;20053;-96
2021/12/14 16:17:27;;;;;;;173.70;76.80;;;;;;;;;;4984705;28;20034;-95
2021/12/14 16:19:55;;;;;;;226.82;100.93;;;;;;;;;;4982344;28;20019;-96
2021/12/14 16:22:21;;;;;;;237.95;102.95;;;;;;;;;;4962075;28;20023;-96
2021/12/14 16:25:00;;;;;;;152.73;75.18;;;;;;;;;;4979836;28;20046;-95
2021/12/14 16:27:26;;;;;;;131.65;61.95;;;;;;;;;;4962026;28;20047;-95
2021/12/14 16:29:52;;;;;;;152.93;65.55;;;;;;;;;;4979434;28;20037;-95
2021/12/14 16:32:19;;;;;;;206.63;87.53;;;;;;;;;;4978825;28;20023;-94
2021/12/14 16:34:45;;;;;;;186.65;83.35;;;;;;;;;;4980829;28;20023;-95
2021/12/14 16:37:13;;;;;;;193.23;90.63;;;;;;;;;;4963579;28;20115;-95
2021/12/14 16:39:40;;;;;;;259.27;124.53;;;;;;;;;;4981649;28;20332;-96
2021/12/14 16:42:17;;;;;;;266.52;126.70;;;;;;;;;;4984435;28;20415;-96
2021/12/14 16:44:49;;;;;;;333.77;139.20;;;;;;;;;;4985171;28;20406;-96
2021/12/14 16:47:23;;;;;;;285.88;124.13;;;;;;;;;;4969708;28;20042;-96
2021/12/14 16:49:52;;;;;;;244.90;106.05;;;;;;;;;;4988744;28;20039;-96
2021/12/14 16:52:22;;;;;;;213.13;96.22;;;;;;;;;;4970324;28;20317;-96
2021/12/14 16:54:50;;;;;;;346.90;139.00;;;;;;;;;;4987768;28;20023;-95
2021/12/14 17:00:28;;;;;;;619.70;250.05;;;;;;;;;;4929894;29;20032;-95
2021/12/14 17:02:55;;;;;;;362.02;149.10;;;;;;;;;;4925015;29;20052;-95
2021/12/14 17:05:27;;;;;;;513.10;252.45;;;;;;;;;;4924876;29;20036;-96
2021/12/14 17:07:57;;;;;;;294.67;117.93;;;;;;;;;;4903799;29;20029;-96
2021/12/14 17:10:25;;;;;;;332.30;131.60;;;;;;;;;;4889199;29;20059;-96
2021/12/14 17:12:56;;;;;;;234.75;98.32;;;;;;;;;;4890095;29;20032;-96
2021/12/14 17:15:34;;;;;;;203.20;89.22;;;;;;;;;;4900879;29;20019;-95
2021/12/14 17:18:00;;;;;;;168.68;78.50;;;;;;;;;;4932288;29;20052;-96
2021/12/14 17:20:27;;;;;;;134.85;54.05;;;;;;;;;;4929292;29;20039;-94
2021/12/14 17:22:53;;;;;;;227.80;90.97;;;;;;;;;;4921024;29;20569;-96
2021/12/14 17:25:22;;;;;;;154.45;69.22;;;;;;;;;;4925861;29;20032;-96
2021/12/14 17:27:49;;;;;;;168.25;69.05;;;;;;;;;;4910345;29;20024;-96
2021/12/14 17:30:36;;;;;;;242.82;94.90;;;;;;;;;;4925784;29;20036;-96
2021/12/14 17:33:02;;;;;;;409.75;148.35;;;;;;;;;;4927424;29;20034;-96
2021/12/14 17:35:33;;;;;;;127.72;56.83;;;;;;;;;;4926397;28;20027;-96
2021/12/14 17:38:03;;;;;;;160.05;76.13;;;;;;;;;;4988935;28;20321;-96
2021/12/14 17:40:52;;;;;;;121.70;54.60;;;;;;;;;;4989157;28;20415;-96
2021/12/14 17:43:22;;;;;;;150.80;64.32;;;;;;;;;;4912486;29;20043;-96
2021/12/14 17:46:11;;;;;;;230.65;106.47;;;;;;;;;;4908799;29;20041;-94
2021/12/14 17:48:38;;;;;;;292.83;130.18;;;;;;;;;;4846716;29;20038;-96
2021/12/14 17:51:10;;;;;;;107.72;51.75;;;;;;;;;;4831728;29;20109;-95
2021/12/14 17:53:37;;;;;;;110.72;49.45;;;;;;;;;;4832081;29;20417;-95
2021/12/14 17:56:06;;;;;;;174.68;76.63;;;;;;;;;;4853387;29;20056;-96
2021/12/14 17:58:36;;;;;;;128.23;51.75;;;;;;;;;;4848293;29;20075;-94
2021/12/14 18:01:05;;;;;;;118.95;56.83;;;;;;;;;;4847602;29;20048;-95
2021/12/14 18:03:35;;;;;;;119.15;56.65;;;;;;;;;;4847597;29;20042;-96
2021/12/14 18:06:08;;;;;;;184.77;64.68;;;;;;;;;;4847388;29;20220;-96
2021/12/14 18:08:39;;;;;;;168.82;72.55;;;;;;;;;;4847460;29;20108;-96
2021/12/14 18:11:05;;;;;;;142.13;60.97;;;;;;;;;;4847353;29;20056;-96
2021/12/14 18:13:33;;;;;;;140.13;63.13;;;;;;;;;;4847120;29;20417;-96
2021/12/14 18:16:05;;;;;;;154.13;70.55;;;;;;;;;;4847425;29;20040;-95
2021/12/14 18:21:20;;;;;;;163.27;69.90;;;;;;;;;;4847384;29;20045;-95
2021/12/14 18:23:47;;;;;;;186.43;77.75;;;;;;;;;;4849813;29;20029;-96
2021/12/14 18:26:22;;;;;;;189.57;81.38;;;;;;;;;;4909757;29;20051;-96
2021/12/14 18:28:53;;;;;;;139.75;62.28;;;;;;;;;;4944339;29;20027;-95
2021/12/14 18:31:19;;;;;;;98.38;47.20;;;;;;;;;;4961112;29;20106;-96
2021/12/14 18:33:53;;;;;;;98.18;44.70;;;;;;;;;;4961261;29;20038;-95
2021/12/14 18:36:32;;;;;;;121.40;53.25;;;;;;;;;;4943048;29;20196;-95
2021/12/14 18:39:01;;;;;;;122.68;52.03;;;;;;;;;;4960912;29;20052;-96
2021/12/14 18:41:29;;;;;;;107.32;48.42;;;;;;;;;;4961067;29;20038;-94
2021/12/14 18:43:55;;;;;;;120.68;54.35;;;;;;;;;;4960790;28;20031;-96
2021/12/14 18:46:34;;;;;;;153.23;60.90;;;;;;;;;;4960958;29;20036;-96
2021/12/14 18:51:54;;;;;;;129.70;54.58;;;;;;;;;;4962242;29;20062;-94
2021/12/14 18:54:24;;;;;;;122.75;52.30;;;;;;;;;;4964111;29;20024;-96
2021/12/14 18:57:28;;;;;;;120.63;51.88;;;;;;;;;;4974522;28;20061;-94
2021/12/14 18:59:58;;;;;;;105.68;46.67;;;;;;;;;;4970890;28;20023;-96
2021/12/14 19:02:27;;;;;;;76.43;39.45;;;;;;;;;;4987801;28;20069;-96
2021/12/14 19:05:32;;;;;;;87.43;42.05;;;;;;;;;;4989509;28;20031;-96
2021/12/14 19:08:05;;;;;;;82.38;38.22;;;;;;;;;;4990775;28;20047;-92
